sensor_id;sensor_type;location;lat;lon;timestamp;pressure;altitude;pressure_sealevel;temperature;humidity
21357;BME280;10836;53.068;18.234;2023-05-24T00:00:41;100645.72;;;14.87;100.00
21357;BME280;10836;53.068;18.234;2023-05-24T00:03:25;100656.50;;;14.70;100.00
21357;BME280;10836;53.068;18.234;2023-05-24T00:05:56;100653.03;;;14.78;100.00
21357;BME280;10836;53.068;18.234;2023-05-24T00:08:23;100648.13;;;14.75;100.00
21357;BME280;10836;53.068;18.234;2023-05-24T00:10:51;100648.47;;;14.87;100.00
21357;BME280;10836;53.068;18.234;2023-05-24T00:13:17;100653.03;;;14.78;100.00
21357;BME280;10836;53.068;18.234;2023-05-24T00:15:45;100646.50;;;14.74;100.00
21357;BME280;10836;53.068;18.234;2023-05-24T00:18:11;100654.44;;;14.75;100.00
21357;BME280;10836;53.068;18.234;2023-05-24T00:20:39;100647.13;;;14.71;100.00
21357;BME280;10836;53.068;18.234;2023-05-24T00:23:06;100648.72;;;14.58;100.00
21357;BME280;10836;53.068;18.234;2023-05-24T00:25:34;100650.78;;;14.66;100.00
21357;BME280;10836;53.068;18.234;2023-05-24T00:28:00;100658.47;;;14.50;100.00
21357;BME280;10836;53.068;18.234;2023-05-24T00:30:27;100659.38;;;14.46;100.00
21357;BME280;10836;53.068;18.234;2023-05-24T00:32:54;100664.25;;;14.30;100.00
21357;BME280;10836;53.068;18.234;2023-05-24T00:35:22;100656.13;;;14.25;100.00
21357;BME280;10836;53.068;18.234;2023-05-24T00:37:49;100647.97;;;14.20;100.00
21357;BME280;10836;53.068;18.234;2023-05-24T00:40:16;100654.66;;;14.14;100.00
21357;BME280;10836;53.068;18.234;2023-05-24T00:42:43;100651.59;;;14.15;100.00
21357;BME280;10836;53.068;18.234;2023-05-24T00:45:10;100652.88;;;14.23;100.00
21357;BME280;10836;53.068;18.234;2023-05-24T00:47:37;100662.75;;;14.05;100.00
21357;BME280;10836;53.068;18.234;2023-05-24T00:50:06;100654.34;;;13.96;100.00
21357;BME280;10836;53.068;18.234;2023-05-24T00:52:35;100665.34;;;13.96;100.00
21357;BME280;10836;53.068;18.234;2023-05-24T00:55:02;100663.69;;;13.95;100.00
21357;BME280;10836;53.068;18.234;2023-05-24T00:57:29;100664.75;;;13.99;100.00
21357;BME280;10836;53.068;18.234;2023-05-24T00:59:57;100660.44;;;13.93;100.00
21357;BME280;10836;53.068;18.234;2023-05-24T01:02:26;100666.75;;;13.94;100.00
21357;BME280;10836;53.068;18.234;2023-05-24T01:04:53;100663.56;;;14.06;100.00
21357;BME280;10836;53.068;18.234;2023-05-24T01:15:46;100667.78;;;13.98;100.00
21357;BME280;10836;53.068;18.234;2023-05-24T01:18:38;100673.78;;;14.00;100.00
21357;BME280;10836;53.068;18.234;2023-05-24T01:27:05;100669.50;;;14.13;100.00
21357;BME280;10836;53.068;18.234;2023-05-24T01:29:34;100669.56;;;14.08;100.00
21357;BME280;10836;53.068;18.234;2023-05-24T01:32:02;100672.31;;;14.08;100.00
21357;BME280;10836;53.068;18.234;2023-05-24T01:34:29;100673.50;;;14.02;100.00
21357;BME280;10836;53.068;18.234;2023-05-24T01:36:56;100672.09;;;14.04;100.00
21357;BME280;10836;53.068;18.234;2023-05-24T01:39:26;100676.63;;;14.14;100.00
21357;BME280;10836;53.068;18.234;2023-05-24T01:42:18;100679.88;;;14.16;100.00
21357;BME280;10836;53.068;18.234;2023-05-24T01:50:27;100690.06;;;14.15;100.00
21357;BME280;10836;53.068;18.234;2023-05-24T01:53:02;100687.00;;;14.17;100.00
21357;BME280;10836;53.068;18.234;2023-05-24T01:55:30;100692.50;;;14.17;100.00
21357;BME280;10836;53.068;18.234;2023-05-24T01:58:01;100692.56;;;14.12;100.00
21357;BME280;10836;53.068;18.234;2023-05-24T02:00:29;100700.81;;;14.12;100.00
21357;BME280;10836;53.068;18.234;2023-05-24T02:02:57;100698.59;;;14.14;100.00
21357;BME280;10836;53.068;18.234;2023-05-24T02:05:24;100702.00;;;14.06;100.00
21357;BME280;10836;53.068;18.234;2023-05-24T02:07:52;100703.50;;;14.17;100.00
21357;BME280;10836;53.068;18.234;2023-05-24T02:10:18;100705.41;;;14.16;100.00
21357;BME280;10836;53.068;18.234;2023-05-24T02:12:45;100706.81;;;14.14;100.00
21357;BME280;10836;53.068;18.234;2023-05-24T02:15:12;100708.31;;;14.06;100.00
21357;BME280;10836;53.068;18.234;2023-05-24T02:17:41;100710.75;;;14.08;100.00
21357;BME280;10836;53.068;18.234;2023-05-24T02:20:09;100716.09;;;14.18;100.00
21357;BME280;10836;53.068;18.234;2023-05-24T02:22:37;100713.22;;;14.28;100.00
21357;BME280;10836;53.068;18.234;2023-05-24T02:25:05;100716.69;;;14.15;100.00
21357;BME280;10836;53.068;18.234;2023-05-24T02:27:32;100721.00;;;14.21;100.00
21357;BME280;10836;53.068;18.234;2023-05-24T02:29:59;100716.97;;;14.32;100.00
21357;BME280;10836;53.068;18.234;2023-05-24T02:32:26;100719.41;;;14.33;100.00
21357;BME280;10836;53.068;18.234;2023-05-24T02:34:53;100713.94;;;14.33;100.00
21357;BME280;10836;53.068;18.234;2023-05-24T02:37:20;100717.50;;;14.34;100.00
21357;BME280;10836;53.068;18.234;2023-05-24T02:39:47;100715.25;;;14.36;100.00
21357;BME280;10836;53.068;18.234;2023-05-24T02:42:14;100711.47;;;14.32;100.00
21357;BME280;10836;53.068;18.234;2023-05-24T02:44:41;100712.09;;;14.29;100.00
21357;BME280;10836;53.068;18.234;2023-05-24T02:47:14;100716.56;;;14.25;100.00
21357;BME280;10836;53.068;18.234;2023-05-24T02:49:41;100707.72;;;14.28;100.00
21357;BME280;10836;53.068;18.234;2023-05-24T02:52:08;100713.94;;;14.33;100.00
21357;BME280;10836;53.068;18.234;2023-05-24T02:54:35;100709.25;;;14.34;100.00
21357;BME280;10836;53.068;18.234;2023-05-24T02:57:04;100709.13;;;14.44;100.00
21357;BME280;10836;53.068;18.234;2023-05-24T02:59:32;100711.09;;;14.39;100.00
21357;BME280;10836;53.068;18.234;2023-05-24T03:02:00;100710.88;;;14.35;100.00
21357;BME280;10836;53.068;18.234;2023-05-24T03:04:27;100707.19;;;14.26;100.00
21357;BME280;10836;53.068;18.234;2023-05-24T03:06:54;100710.88;;;14.35;100.00
21357;BME280;10836;53.068;18.234;2023-05-24T03:09:21;100715.22;;;14.41;100.00
21357;BME280;10836;53.068;18.234;2023-05-24T03:11:48;100720.72;;;14.41;100.00
21357;BME280;10836;53.068;18.234;2023-05-24T03:14:15;100721.16;;;14.48;100.00
21357;BME280;10836;53.068;18.234;2023-05-24T03:16:43;100727.84;;;14.42;100.00
21357;BME280;10836;53.068;18.234;2023-05-24T03:19:10;100735.25;;;14.42;100.00
21357;BME280;10836;53.068;18.234;2023-05-24T03:21:37;100736.94;;;14.38;100.00
21357;BME280;10836;53.068;18.234;2023-05-24T03:24:04;100733.91;;;14.39;100.00
21357;BME280;10836;53.068;18.234;2023-05-24T03:26:31;100745.47;;;14.36;100.00
21357;BME280;10836;53.068;18.234;2023-05-24T03:28:58;100743.13;;;14.48;100.00
21357;BME280;10836;53.068;18.234;2023-05-24T03:31:32;100743.56;;;14.55;100.00
21357;BME280;10836;53.068;18.234;2023-05-24T03:33:59;100742.38;;;14.61;100.00
21357;BME280;10836;53.068;18.234;2023-05-24T03:36:28;100746.97;;;14.66;100.00
21357;BME280;10836;53.068;18.234;2023-05-24T03:38:55;100746.03;;;14.57;100.00
21357;BME280;10836;53.068;18.234;2023-05-24T03:41:25;100747.88;;;14.61;100.00
21357;BME280;10836;53.068;18.234;2023-05-24T03:43:57;100755.84;;;14.77;100.00
21357;BME280;10836;53.068;18.234;2023-05-24T03:46:26;100756.97;;;14.76;100.00
21357;BME280;10836;53.068;18.234;2023-05-24T03:48:53;100748.22;;;14.74;100.00
21357;BME280;10836;53.068;18.234;2023-05-24T03:51:21;100758.72;;;14.53;100.00
21357;BME280;10836;53.068;18.234;2023-05-24T03:53:55;100757.38;;;14.50;100.00
21357;BME280;10836;53.068;18.234;2023-05-24T03:56:24;100756.34;;;14.46;100.00
21357;BME280;10836;53.068;18.234;2023-05-24T03:58:54;100759.72;;;14.38;100.00
21357;BME280;10836;53.068;18.234;2023-05-24T04:01:23;100758.50;;;14.49;100.00
21357;BME280;10836;53.068;18.234;2023-05-24T04:04:00;100765.56;;;14.55;100.00
21357;BME280;10836;53.068;18.234;2023-05-24T04:06:28;100764.00;;;14.49;100.00
21357;BME280;10836;53.068;18.234;2023-05-24T04:08:58;100760.66;;;14.52;100.00
21357;BME280;10836;53.068;18.234;2023-05-24T04:11:25;100758.44;;;14.54;100.00
21357;BME280;10836;53.068;18.234;2023-05-24T04:13:57;100761.19;;;14.54;100.00
21357;BME280;10836;53.068;18.234;2023-05-24T04:16:27;100774.31;;;14.57;100.00
21357;BME280;10836;53.068;18.234;2023-05-24T04:18:55;100770.91;;;14.66;100.00
21357;BME280;10836;53.068;18.234;2023-05-24T04:21:23;100780.84;;;14.61;100.00
21357;BME280;10836;53.068;18.234;2023-05-24T04:23:51;100782.25;;;14.59;100.00
21357;BME280;10836;53.068;18.234;2023-05-24T04:26:18;100787.16;;;14.43;100.00
21357;BME280;10836;53.068;18.234;2023-05-24T04:28:47;100793.78;;;14.42;100.00
21357;BME280;10836;53.068;18.234;2023-05-24T04:31:14;100792.97;;;14.42;100.00
21357;BME280;10836;53.068;18.234;2023-05-24T04:33:42;100797.63;;;14.41;100.00
21357;BME280;10836;53.068;18.234;2023-05-24T04:36:09;100799.00;;;14.39;100.00
21357;BME280;10836;53.068;18.234;2023-05-24T04:38:38;100803.69;;;14.38;100.00
21357;BME280;10836;53.068;18.234;2023-05-24T04:41:06;100802.66;;;14.34;100.00
21357;BME280;10836;53.068;18.234;2023-05-24T04:43:33;100805.50;;;14.29;100.00
21357;BME280;10836;53.068;18.234;2023-05-24T04:46:00;100799.53;;;14.22;100.00
21357;BME280;10836;53.068;18.234;2023-05-24T04:48:28;100798.38;;;14.28;100.00
21357;BME280;10836;53.068;18.234;2023-05-24T04:50:56;100787.72;;;14.21;100.00
21357;BME280;10836;53.068;18.234;2023-05-24T04:53:24;100794.19;;;14.12;100.00
21357;BME280;10836;53.068;18.234;2023-05-24T04:55:51;100785.88;;;14.17;100.00
21357;BME280;10836;53.068;18.234;2023-05-24T04:58:18;100803.41;;;14.21;100.00
21357;BME280;10836;53.068;18.234;2023-05-24T05:00:46;100812.28;;;14.13;100.00
21357;BME280;10836;53.068;18.234;2023-05-24T05:03:12;100821.88;;;13.91;100.00
21357;BME280;10836;53.068;18.234;2023-05-24T05:05:40;100823.44;;;13.97;100.00
21357;BME280;10836;53.068;18.234;2023-05-24T05:08:06;100832.28;;;13.94;100.00
21357;BME280;10836;53.068;18.234;2023-05-24T05:10:34;100835.22;;;13.79;100.00
21357;BME280;10836;53.068;18.234;2023-05-24T05:13:01;100834.97;;;13.76;100.00
21357;BME280;10836;53.068;18.234;2023-05-24T05:15:29;100836.91;;;13.75;100.00
21357;BME280;10836;53.068;18.234;2023-05-24T05:17:56;100837.28;;;13.87;100.00
21357;BME280;10836;53.068;18.234;2023-05-24T05:20:23;100842.19;;;13.90;100.00
21357;BME280;10836;53.068;18.234;2023-05-24T05:22:50;100843.53;;;13.93;100.00
21357;BME280;10836;53.068;18.234;2023-05-24T05:25:17;100851.19;;;13.96;100.00
21357;BME280;10836;53.068;18.234;2023-05-24T05:27:44;100849.22;;;14.02;100.00
21357;BME280;10836;53.068;18.234;2023-05-24T05:30:11;100855.81;;;13.77;100.00
21357;BME280;10836;53.068;18.234;2023-05-24T05:32:38;100856.94;;;13.76;100.00
21357;BME280;10836;53.068;18.234;2023-05-24T05:35:06;100857.28;;;13.93;100.00
21357;BME280;10836;53.068;18.234;2023-05-24T05:37:33;100865.22;;;13.94;100.00
21357;BME280;10836;53.068;18.234;2023-05-24T05:40:00;100871.06;;;13.88;100.00
21357;BME280;10836;53.068;18.234;2023-05-24T05:42:27;100872.94;;;13.92;100.00
21357;BME280;10836;53.068;18.234;2023-05-24T05:44:54;100878.31;;;13.79;100.00
21357;BME280;10836;53.068;18.234;2023-05-24T05:47:21;100881.91;;;13.74;100.00
21357;BME280;10836;53.068;18.234;2023-05-24T05:49:48;100889.03;;;13.75;100.00
21357;BME280;10836;53.068;18.234;2023-05-24T05:52:15;100886.25;;;13.80;100.00
21357;BME280;10836;53.068;18.234;2023-05-24T05:54:42;100890.06;;;13.84;100.00
21357;BME280;10836;53.068;18.234;2023-05-24T05:57:09;100903.84;;;13.79;100.00
21357;BME280;10836;53.068;18.234;2023-05-24T05:59:37;100899.97;;;13.80;100.00
21357;BME280;10836;53.068;18.234;2023-05-24T06:02:05;100904.44;;;13.71;100.00
21357;BME280;10836;53.068;18.234;2023-05-24T06:04:33;100901.66;;;13.76;100.00
21357;BME280;10836;53.068;18.234;2023-05-24T06:07:00;100913.78;;;13.70;100.00
21357;BME280;10836;53.068;18.234;2023-05-24T06:09:27;100922.97;;;13.55;100.00
21357;BME280;10836;53.068;18.234;2023-05-24T06:11:54;100923.25;;;13.54;100.00
21357;BME280;10836;53.068;18.234;2023-05-24T06:14:21;100928.09;;;13.67;100.00
21357;BME280;10836;53.068;18.234;2023-05-24T06:16:50;100932.19;;;13.41;100.00
21357;BME280;10836;53.068;18.234;2023-05-24T06:19:18;100935.44;;;13.43;100.00
21357;BME280;10836;53.068;18.234;2023-05-24T06:21:46;100934.03;;;13.45;100.00
21357;BME280;10836;53.068;18.234;2023-05-24T06:24:17;100936.41;;;13.57;100.00
21357;BME280;10836;53.068;18.234;2023-05-24T06:26:49;100948.28;;;13.47;100.00
21357;BME280;10836;53.068;18.234;2023-05-24T06:29:17;100950.13;;;13.57;100.00
21357;BME280;10836;53.068;18.234;2023-05-24T06:31:48;100954.34;;;13.78;100.00
21357;BME280;10836;53.068;18.234;2023-05-24T06:34:16;100961.94;;;13.86;100.00
21357;BME280;10836;53.068;18.234;2023-05-24T06:36:44;100965.06;;;13.75;100.00
21357;BME280;10836;53.068;18.234;2023-05-24T06:39:14;100976.13;;;13.93;100.00
21357;BME280;10836;53.068;18.234;2023-05-24T06:41:42;100973.38;;;13.93;100.00
21357;BME280;10836;53.068;18.234;2023-05-24T06:44:10;100971.63;;;14.08;100.00
21357;BME280;10836;53.068;18.234;2023-05-24T06:46:38;100992.47;;;14.09;100.00
21357;BME280;10836;53.068;18.234;2023-05-24T06:49:05;100984.19;;;14.14;100.00
21357;BME280;10836;53.068;18.234;2023-05-24T06:51:32;100987.06;;;13.98;100.00
21357;BME280;10836;53.068;18.234;2023-05-24T06:54:00;100993.88;;;14.06;100.00
21357;BME280;10836;53.068;18.234;2023-05-24T06:56:27;100994.59;;;14.17;100.00
21357;BME280;10836;53.068;18.234;2023-05-24T06:58:55;100991.22;;;14.25;100.00
21357;BME280;10836;53.068;18.234;2023-05-24T07:01:22;101002.44;;;14.28;100.00
21357;BME280;10836;53.068;18.234;2023-05-24T07:03:49;101005.69;;;14.30;100.00
21357;BME280;10836;53.068;18.234;2023-05-24T07:06:16;101014.69;;;14.41;100.00
21357;BME280;10836;53.068;18.234;2023-05-24T07:08:44;101009.59;;;14.53;100.00
21357;BME280;10836;53.068;18.234;2023-05-24T07:11:11;101015.09;;;14.53;100.00
21357;BME280;10836;53.068;18.234;2023-05-24T07:13:39;101020.00;;;14.56;100.00
21357;BME280;10836;53.068;18.234;2023-05-24T07:16:06;101014.84;;;14.74;100.00
21357;BME280;10836;53.068;18.234;2023-05-24T07:18:33;101018.41;;;14.98;100.00
21357;BME280;10836;53.068;18.234;2023-05-24T07:21:00;101019.31;;;15.31;100.00
21357;BME280;10836;53.068;18.234;2023-05-24T07:23:27;101014.16;;;15.62;100.00
21357;BME280;10836;53.068;18.234;2023-05-24T07:25:54;101026.06;;;15.76;100.00
21357;BME280;10836;53.068;18.234;2023-05-24T07:28:21;101023.66;;;16.35;100.00
21357;BME280;10836;53.068;18.234;2023-05-24T07:30:47;101025.31;;;17.04;100.00
21357;BME280;10836;53.068;18.234;2023-05-24T07:33:15;101030.38;;;17.24;100.00
21357;BME280;10836;53.068;18.234;2023-05-24T07:35:42;101028.00;;;17.90;100.00
21357;BME280;10836;53.068;18.234;2023-05-24T07:38:11;101033.72;;;17.93;100.00
21357;BME280;10836;53.068;18.234;2023-05-24T07:40:38;101040.00;;;17.85;100.00
21357;BME280;10836;53.068;18.234;2023-05-24T07:43:05;101047.34;;;18.12;100.00
21357;BME280;10836;53.068;18.234;2023-05-24T07:45:32;101056.59;;;18.39;100.00
21357;BME280;10836;53.068;18.234;2023-05-24T07:48:00;101057.50;;;18.56;100.00
21357;BME280;10836;53.068;18.234;2023-05-24T07:50:27;101068.22;;;18.49;100.00
21357;BME280;10836;53.068;18.234;2023-05-24T07:52:58;101061.47;;;17.66;100.00
21357;BME280;10836;53.068;18.234;2023-05-24T07:55:24;101071.38;;;18.34;100.00
21357;BME280;10836;53.068;18.234;2023-05-24T07:57:53;101063.50;;;18.19;100.00
21357;BME280;10836;53.068;18.234;2023-05-24T08:00:20;101068.84;;;18.15;100.00
21357;BME280;10836;53.068;18.234;2023-05-24T08:02:49;101071.84;;;18.58;100.00
21357;BME280;10836;53.068;18.234;2023-05-24T08:05:16;101072.19;;;18.66;100.00
21357;BME280;10836;53.068;18.234;2023-05-24T08:07:44;101082.63;;;18.69;99.88
21357;BME280;10836;53.068;18.234;2023-05-24T08:10:11;101083.16;;;18.79;100.00
21357;BME280;10836;53.068;18.234;2023-05-24T08:12:40;101079.88;;;19.17;96.92
21357;BME280;10836;53.068;18.234;2023-05-24T08:15:07;101085.97;;;18.88;99.75
21357;BME280;10836;53.068;18.234;2023-05-24T08:17:34;101094.22;;;18.79;99.85
21357;BME280;10836;53.068;18.234;2023-05-24T08:20:02;101076.81;;;18.17;100.00
21357;BME280;10836;53.068;18.234;2023-05-24T08:22:32;101079.50;;;17.50;100.00
21357;BME280;10836;53.068;18.234;2023-05-24T08:24:59;101089.28;;;17.56;100.00
21357;BME280;10836;53.068;18.234;2023-05-24T08:27:26;101085.84;;;18.09;100.00
21357;BME280;10836;53.068;18.234;2023-05-24T08:29:56;101081.88;;;18.23;100.00
21357;BME280;10836;53.068;18.234;2023-05-24T08:32:23;101089.59;;;18.35;99.75
21357;BME280;10836;53.068;18.234;2023-05-24T08:34:50;101086.25;;;18.47;100.00
21357;BME280;10836;53.068;18.234;2023-05-24T08:37:29;101090.22;;;18.32;100.00
21357;BME280;10836;53.068;18.234;2023-05-24T08:39:58;101106.28;;;19.32;98.67
21357;BME280;10836;53.068;18.234;2023-05-24T08:42:27;101102.72;;;19.40;96.08
21357;BME280;10836;53.068;18.234;2023-05-24T08:45:01;101099.00;;;19.53;93.44
21357;BME280;10836;53.068;18.234;2023-05-24T08:47:29;101096.25;;;19.70;96.15
21357;BME280;10836;53.068;18.234;2023-05-24T08:49:56;101101.28;;;19.51;90.81
21357;BME280;10836;53.068;18.234;2023-05-24T08:52:24;101109.91;;;18.92;95.16
21357;BME280;10836;53.068;18.234;2023-05-24T08:54:53;101109.81;;;19.80;91.11
21357;BME280;10836;53.068;18.234;2023-05-24T08:57:21;101110.31;;;19.91;94.66
21357;BME280;10836;53.068;18.234;2023-05-24T08:59:48;101118.06;;;19.46;90.92
21357;BME280;10836;53.068;18.234;2023-05-24T09:02:15;101107.06;;;18.44;99.50
21357;BME280;10836;53.068;18.234;2023-05-24T09:04:45;101114.28;;;18.85;95.84
21357;BME280;10836;53.068;18.234;2023-05-24T09:07:17;101116.91;;;18.90;97.50
21357;BME280;10836;53.068;18.234;2023-05-24T09:09:52;101105.53;;;18.38;100.00
21357;BME280;10836;53.068;18.234;2023-05-24T09:12:21;101117.47;;;17.80;100.00
21357;BME280;10836;53.068;18.234;2023-05-24T09:15:04;101122.72;;;18.04;100.00
21357;BME280;10836;53.068;18.234;2023-05-24T09:17:33;101131.03;;;17.68;100.00
21357;BME280;10836;53.068;18.234;2023-05-24T09:20:00;101123.13;;;17.75;100.00
21357;BME280;10836;53.068;18.234;2023-05-24T09:22:28;101125.66;;;17.85;100.00
21357;BME280;10836;53.068;18.234;2023-05-24T09:25:00;101124.16;;;17.52;100.00
21357;BME280;10836;53.068;18.234;2023-05-24T09:27:30;101138.03;;;17.11;100.00
21357;BME280;10836;53.068;18.234;2023-05-24T09:29:57;101134.56;;;17.19;100.00
21357;BME280;10836;53.068;18.234;2023-05-24T09:32:24;101139.03;;;16.87;100.00
21357;BME280;10836;53.068;18.234;2023-05-24T09:34:52;101142.94;;;16.86;100.00
21357;BME280;10836;53.068;18.234;2023-05-24T09:37:23;101140.25;;;16.95;100.00
21357;BME280;10836;53.068;18.234;2023-05-24T09:39:57;101149.03;;;16.97;100.00
21357;BME280;10836;53.068;18.234;2023-05-24T09:42:25;101154.38;;;17.07;100.00
21357;BME280;10836;53.068;18.234;2023-05-24T09:45:03;101157.53;;;17.14;100.00
21357;BME280;10836;53.068;18.234;2023-05-24T09:47:36;101150.16;;;17.51;100.00
21357;BME280;10836;53.068;18.234;2023-05-24T09:50:08;101156.78;;;17.63;100.00
21357;BME280;10836;53.068;18.234;2023-05-24T09:52:39;101166.06;;;17.81;100.00
21357;BME280;10836;53.068;18.234;2023-05-24T09:55:13;101160.28;;;18.05;98.72
21357;BME280;10836;53.068;18.234;2023-05-24T09:57:48;101169.00;;;18.43;99.88
21357;BME280;10836;53.068;18.234;2023-05-24T10:00:25;101173.63;;;19.49;93.43
21357;BME280;10836;53.068;18.234;2023-05-24T10:03:04;101176.13;;;20.37;92.84
21357;BME280;10836;53.068;18.234;2023-05-24T10:05:34;101166.06;;;20.97;82.82
21357;BME280;10836;53.068;18.234;2023-05-24T10:08:02;101172.56;;;20.45;83.59
21357;BME280;10836;53.068;18.234;2023-05-24T10:10:35;101173.34;;;20.37;86.02
21357;BME280;10836;53.068;18.234;2023-05-24T10:13:03;101176.47;;;20.10;88.17
21357;BME280;10836;53.068;18.234;2023-05-24T10:15:30;101176.47;;;20.36;85.56
21357;BME280;10836;53.068;18.234;2023-05-24T10:17:57;101180.06;;;20.53;83.26
21357;BME280;10836;53.068;18.234;2023-05-24T10:20:28;101169.44;;;20.55;85.34
21357;BME280;10836;53.068;18.234;2023-05-24T10:23:00;101178.59;;;20.56;83.94
21357;BME280;10836;53.068;18.234;2023-05-24T10:25:28;101177.13;;;20.41;83.06
21357;BME280;10836;53.068;18.234;2023-05-24T10:27:57;101181.06;;;20.23;83.79
21357;BME280;10836;53.068;18.234;2023-05-24T10:30:41;101179.09;;;20.49;80.16
21357;BME280;10836;53.068;18.234;2023-05-24T10:33:11;101176.34;;;20.96;84.04
21357;BME280;10836;53.068;18.234;2023-05-24T10:35:40;101174.19;;;20.64;78.11
21357;BME280;10836;53.068;18.234;2023-05-24T10:38:08;101181.22;;;20.52;86.88
21357;BME280;10836;53.068;18.234;2023-05-24T10:40:40;101184.72;;;21.64;83.39
21357;BME280;10836;53.068;18.234;2023-05-24T10:43:08;101175.31;;;22.06;77.33
21357;BME280;10836;53.068;18.234;2023-05-24T10:45:37;101172.88;;;22.71;75.77
21357;BME280;10836;53.068;18.234;2023-05-24T10:50:39;101179.53;;;22.57;67.89
21357;BME280;10836;53.068;18.234;2023-05-24T10:53:10;101177.84;;;22.32;71.07
21357;BME280;10836;53.068;18.234;2023-05-24T10:55:58;101178.97;;;22.85;64.57
21357;BME280;10836;53.068;18.234;2023-05-24T10:58:58;101176.91;;;23.06;65.59
21357;BME280;10836;53.068;18.234;2023-05-24T11:01:30;101177.50;;;22.67;65.98
21357;BME280;10836;53.068;18.234;2023-05-24T11:04:09;101176.28;;;22.55;64.80
21357;BME280;10836;53.068;18.234;2023-05-24T11:06:51;101185.56;;;22.47;63.63
21357;BME280;10836;53.068;18.234;2023-05-24T11:09:22;101171.50;;;21.81;67.69
21357;BME280;10836;53.068;18.234;2023-05-24T11:11:54;101173.50;;;22.22;67.98
21357;BME280;10836;53.068;18.234;2023-05-24T11:14:23;101176.22;;;21.89;67.03
21357;BME280;10836;53.068;18.234;2023-05-24T11:16:53;101174.06;;;20.98;69.39
21357;BME280;10836;53.068;18.234;2023-05-24T11:19:23;101168.44;;;21.53;69.53
21357;BME280;10836;53.068;18.234;2023-05-24T11:21:51;101177.28;;;22.06;71.45
21357;BME280;10836;53.068;18.234;2023-05-24T11:24:25;101180.47;;;22.49;64.87
21357;BME280;10836;53.068;18.234;2023-05-24T11:26:52;101182.47;;;22.28;67.46
21357;BME280;10836;53.068;18.234;2023-05-24T11:29:20;101185.00;;;21.71;70.32
21357;BME280;10836;53.068;18.234;2023-05-24T11:31:58;101200.31;;;22.27;64.92
21357;BME280;10836;53.068;18.234;2023-05-24T11:34:32;101187.13;;;21.95;68.29
21357;BME280;10836;53.068;18.234;2023-05-24T11:37:01;101192.22;;;21.92;70.21
21357;BME280;10836;53.068;18.234;2023-05-24T11:39:32;101197.75;;;21.72;67.48
21357;BME280;10836;53.068;18.234;2023-05-24T11:42:03;101194.63;;;22.03;67.29
21357;BME280;10836;53.068;18.234;2023-05-24T11:44:31;101194.00;;;22.18;66.89
21357;BME280;10836;53.068;18.234;2023-05-24T11:46:59;101196.16;;;21.91;67.34
21357;BME280;10836;53.068;18.234;2023-05-24T11:49:27;101194.22;;;21.83;69.78
21357;BME280;10836;53.068;18.234;2023-05-24T11:51:55;101194.63;;;22.03;67.09
21357;BME280;10836;53.068;18.234;2023-05-24T11:54:23;101191.25;;;22.51;64.67
21357;BME280;10836;53.068;18.234;2023-05-24T11:56:52;101197.09;;;22.91;66.56
21357;BME280;10836;53.068;18.234;2023-05-24T11:59:27;101194.53;;;22.86;64.68
21357;BME280;10836;53.068;18.234;2023-05-24T12:02:00;101204.44;;;22.21;64.42
21357;BME280;10836;53.068;18.234;2023-05-24T12:04:29;101192.69;;;22.90;63.53
21357;BME280;10836;53.068;18.234;2023-05-24T12:06:56;101195.38;;;23.23;65.90
21357;BME280;10836;53.068;18.234;2023-05-24T12:09:24;101197.00;;;23.48;66.50
21357;BME280;10836;53.068;18.234;2023-05-24T12:11:52;101196.53;;;23.83;58.25
21357;BME280;10836;53.068;18.234;2023-05-24T12:14:28;101199.25;;;23.55;60.08
21357;BME280;10836;53.068;18.234;2023-05-24T12:16:57;101194.81;;;23.66;59.77
21357;BME280;10836;53.068;18.234;2023-05-24T12:19:29;101190.38;;;23.16;60.28
21357;BME280;10836;53.068;18.234;2023-05-24T12:22:04;101189.25;;;23.30;59.15
21357;BME280;10836;53.068;18.234;2023-05-24T12:24:32;101199.56;;;22.72;62.87
21357;BME280;10836;53.068;18.234;2023-05-24T12:27:01;101194.25;;;23.36;60.20
21357;BME280;10836;53.068;18.234;2023-05-24T12:29:37;101201.72;;;22.99;60.87
21357;BME280;10836;53.068;18.234;2023-05-24T12:32:06;101193.75;;;23.22;59.95
21357;BME280;10836;53.068;18.234;2023-05-24T12:34:41;101197.38;;;23.35;58.68
21357;BME280;10836;53.068;18.234;2023-05-24T12:37:09;101201.97;;;23.92;57.06
21357;BME280;10836;53.068;18.234;2023-05-24T12:39:38;101195.97;;;23.29;56.46
21357;BME280;10836;53.068;18.234;2023-05-24T12:42:05;101198.63;;;23.25;60.38
21357;BME280;10836;53.068;18.234;2023-05-24T12:44:34;101199.31;;;24.35;54.32
21357;BME280;10836;53.068;18.234;2023-05-24T12:47:02;101203.94;;;24.43;55.75
21357;BME280;10836;53.068;18.234;2023-05-24T12:49:30;101189.94;;;24.56;54.87
21357;BME280;10836;53.068;18.234;2023-05-24T12:51:57;101179.25;;;24.73;57.09
21357;BME280;10836;53.068;18.234;2023-05-24T12:54:26;101183.16;;;23.88;55.79
21357;BME280;10836;53.068;18.234;2023-05-24T12:56:54;101181.81;;;23.21;59.52
21357;BME280;10836;53.068;18.234;2023-05-24T12:59:24;101182.00;;;22.05;63.99
21357;BME280;10836;53.068;18.234;2023-05-24T13:01:51;101190.59;;;21.91;66.64
21357;BME280;10836;53.068;18.234;2023-05-24T13:04:21;101186.88;;;21.29;66.95